createdAt,value
2017-09-17T00:01:35.086Z,99.90
2017-09-17T00:04:02.678Z,99.90
2017-09-17T00:06:30.938Z,99.90
2017-09-17T00:08:59.215Z,99.90
2017-09-17T00:11:27.510Z,99.90
2017-09-17T00:13:55.070Z,99.90
2017-09-17T00:16:22.672Z,99.90
2017-09-17T00:18:50.186Z,99.90
2017-09-17T00:21:17.679Z,99.90
2017-09-17T00:23:46.047Z,99.90
2017-09-17T00:26:13.539Z,99.90
2017-09-17T00:28:41.047Z,99.90
2017-09-17T00:31:08.698Z,99.90
2017-09-17T00:33:36.327Z,99.90
2017-09-17T00:36:03.924Z,99.90
2017-09-17T00:38:31.474Z,99.90
2017-09-17T00:40:59.679Z,99.90
2017-09-17T00:43:27.171Z,99.90
2017-09-17T00:45:54.682Z,99.90
2017-09-17T00:48:22.387Z,99.90
2017-09-17T00:50:49.895Z,99.90
2017-09-17T00:53:17.547Z,99.90
2017-09-17T00:55:45.106Z,99.90
2017-09-17T00:58:12.604Z,99.90
2017-09-17T01:00:40.203Z,99.90
2017-09-17T01:03:08.482Z,99.90
2017-09-17T01:05:37.582Z,99.90
2017-09-17T01:08:05.842Z,99.90
2017-09-17T01:10:34.350Z,99.90
2017-09-17T01:13:02.833Z,99.90
2017-09-17T01:15:30.342Z,99.90
2017-09-17T01:17:57.854Z,99.90
2017-09-17T01:20:25.368Z,99.90
2017-09-17T01:22:52.943Z,99.90
2017-09-17T01:25:21.225Z,99.90
2017-09-17T01:27:49.732Z,99.90
2017-09-17T01:30:17.244Z,99.90
2017-09-17T01:32:45.468Z,99.90
2017-09-17T01:35:12.979Z,99.90
2017-09-17T01:37:40.475Z,99.90
2017-09-17T01:40:08.727Z,99.90
2017-09-17T01:42:37.100Z,99.90
2017-09-17T01:45:05.502Z,99.90
2017-09-17T01:47:33.079Z,99.90
2017-09-17T01:50:00.728Z,99.90
2017-09-17T01:52:28.278Z,99.90
2017-09-17T01:54:55.798Z,99.90
2017-09-17T01:57:23.291Z,99.90
2017-09-17T01:59:50.811Z,99.90
2017-09-17T02:02:18.416Z,99.90
2017-09-17T02:04:46.039Z,99.90
2017-09-17T02:07:14.351Z,99.90
2017-09-17T02:09:41.841Z,99.90
2017-09-17T02:12:09.355Z,99.90
2017-09-17T02:14:37.722Z,99.90
2017-09-17T02:17:06.734Z,99.90
2017-09-17T02:19:35.934Z,99.90
2017-09-17T02:22:03.547Z,99.90
2017-09-17T02:24:31.259Z,99.90
2017-09-17T02:26:59.611Z,99.90
2017-09-17T02:29:27.212Z,99.90
2017-09-17T02:31:54.735Z,99.90
2017-09-17T02:34:23.034Z,99.90
2017-09-17T02:36:50.587Z,99.90
2017-09-17T02:39:18.147Z,99.90
2017-09-17T02:41:45.711Z,99.90
2017-09-17T02:44:14.133Z,99.90
2017-09-17T02:46:42.568Z,99.90
2017-09-17T02:49:10.079Z,99.90
2017-09-17T02:51:38.460Z,99.90
2017-09-17T02:54:05.970Z,99.90
2017-09-17T02:56:33.518Z,99.90
2017-09-17T02:59:01.185Z,99.90
2017-09-17T03:01:28.738Z,99.90
2017-09-17T03:03:56.251Z,99.90
2017-09-17T03:06:23.759Z,99.90
2017-09-17T03:08:51.310Z,99.90
2017-09-17T03:11:19.567Z,99.90
2017-09-17T03:13:47.847Z,99.90
2017-09-17T03:16:16.109Z,99.90
2017-09-17T03:18:43.699Z,99.90
2017-09-17T03:21:11.270Z,99.90
2017-09-17T03:23:38.778Z,99.90
2017-09-17T03:26:06.374Z,99.90
2017-09-17T03:28:34.854Z,99.90
2017-09-17T03:31:05.153Z,99.90
2017-09-17T03:33:33.439Z,99.90
2017-09-17T03:36:01.700Z,99.90
2017-09-17T03:38:29.214Z,99.90
2017-09-17T03:40:56.711Z,99.90
2017-09-17T03:43:24.330Z,99.90
2017-09-17T03:45:51.918Z,99.90
2017-09-17T03:48:19.522Z,99.90
2017-09-17T03:50:48.650Z,99.90
2017-09-17T03:53:16.179Z,99.90
2017-09-17T03:55:43.679Z,99.90
2017-09-17T03:58:11.874Z,99.90
2017-09-17T04:00:39.479Z,99.90
2017-09-17T04:03:07.031Z,99.90
2017-09-17T04:05:34.591Z,99.90
2017-09-17T04:08:02.095Z,99.90
2017-09-17T04:10:29.608Z,99.90
2017-09-17T04:12:57.841Z,99.90
2017-09-17T04:15:25.386Z,99.90
2017-09-17T04:17:53.565Z,99.90
2017-09-17T04:20:21.175Z,99.90
2017-09-17T04:22:49.042Z,99.90
2017-09-17T04:25:17.514Z,99.90
2017-09-17T04:27:45.776Z,99.90
2017-09-17T04:30:14.171Z,99.90
2017-09-17T04:32:41.800Z,99.90
2017-09-17T04:35:09.594Z,99.90
2017-09-17T04:37:37.855Z,99.90
2017-09-17T04:40:06.151Z,99.90
2017-09-17T04:42:33.643Z,99.90
2017-09-17T04:45:01.883Z,99.90
2017-09-17T04:47:29.380Z,99.90
2017-09-17T04:49:57.824Z,99.90
2017-09-17T04:52:26.066Z,99.90
2017-09-17T04:54:54.370Z,99.90
2017-09-17T04:57:22.721Z,99.90
2017-09-17T04:59:50.858Z,99.90
2017-09-17T05:02:18.466Z,99.90
2017-09-17T05:04:46.743Z,99.90
2017-09-17T05:07:15.015Z,99.90
2017-09-17T05:09:43.302Z,99.90
2017-09-17T05:12:11.660Z,99.90
2017-09-17T05:14:39.160Z,99.90
2017-09-17T05:17:06.670Z,99.90
2017-09-17T05:19:34.162Z,99.90
2017-09-17T05:22:01.684Z,99.90
2017-09-17T05:24:29.279Z,99.90
2017-09-17T05:26:56.938Z,99.90
2017-09-17T05:29:24.436Z,99.90
2017-09-17T05:31:51.949Z,99.90
2017-09-17T05:34:20.216Z,99.90
2017-09-17T05:36:48.607Z,99.90
2017-09-17T05:39:16.818Z,99.90
2017-09-17T05:41:45.055Z,99.90
2017-09-17T05:44:12.551Z,99.90
2017-09-17T05:46:40.063Z,99.90
2017-09-17T05:49:09.271Z,99.90
2017-09-17T05:51:36.847Z,99.90
2017-09-17T05:54:04.392Z,99.90
2017-09-17T05:56:31.978Z,99.90
2017-09-17T05:58:59.507Z,99.90
2017-09-17T06:01:27.883Z,99.90
2017-09-17T06:03:55.441Z,99.90
2017-09-17T06:06:22.935Z,99.90
2017-09-17T06:08:50.462Z,99.90
2017-09-17T06:11:18.579Z,99.90
2017-09-17T06:13:46.294Z,99.90
2017-09-17T06:16:13.855Z,99.90
2017-09-17T06:18:41.411Z,99.90
2017-09-17T06:21:09.687Z,99.90
2017-09-17T06:23:37.203Z,99.90
2017-09-17T06:26:05.519Z,99.90
2017-09-17T06:28:33.082Z,99.90
2017-09-17T06:31:00.644Z,99.90
2017-09-17T06:33:28.170Z,99.90
2017-09-17T06:35:55.666Z,99.90
2017-09-17T06:38:23.186Z,99.90
2017-09-17T06:40:50.776Z,99.90
2017-09-17T06:43:18.294Z,99.90
2017-09-17T06:45:45.899Z,99.90
2017-09-17T06:48:13.419Z,99.90
2017-09-17T06:50:40.922Z,99.90
2017-09-17T06:53:08.570Z,99.90
2017-09-17T06:55:36.079Z,99.90
2017-09-17T06:58:03.634Z,99.90
2017-09-17T07:00:31.138Z,99.90
2017-09-17T07:02:58.707Z,99.90
2017-09-17T07:05:26.211Z,99.90
2017-09-17T07:07:53.737Z,99.90
2017-09-17T07:10:21.283Z,99.90
2017-09-17T07:12:48.938Z,99.90
2017-09-17T07:15:16.443Z,99.90
2017-09-17T07:17:44.153Z,99.90
2017-09-17T07:20:11.823Z,99.90
2017-09-17T07:22:39.330Z,99.90
2017-09-17T07:25:06.847Z,99.90
2017-09-17T07:27:34.351Z,99.90
2017-09-17T07:30:01.874Z,99.90
2017-09-17T07:32:29.374Z,99.90
2017-09-17T07:34:56.902Z,99.90
2017-09-17T07:37:25.110Z,99.90
2017-09-17T07:39:52.630Z,99.90
2017-09-17T07:42:20.156Z,99.90
2017-09-17T07:44:48.549Z,99.90
2017-09-17T07:47:17.123Z,99.90
2017-09-17T07:49:44.642Z,99.90
2017-09-17T07:52:12.887Z,99.90
2017-09-17T07:54:40.528Z,99.90
2017-09-17T07:57:08.036Z,99.90
2017-09-17T07:59:35.635Z,99.90
2017-09-17T08:02:03.207Z,99.90
2017-09-17T08:04:30.752Z,99.90
2017-09-17T08:06:58.359Z,99.90
2017-09-17T08:09:25.883Z,99.90
2017-09-17T08:11:53.431Z,99.90
2017-09-17T08:14:20.956Z,99.90
2017-09-17T08:16:49.459Z,99.90
2017-09-17T08:19:17.756Z,99.90
2017-09-17T08:21:46.099Z,99.90
2017-09-17T08:24:14.387Z,99.90
2017-09-17T08:26:42.659Z,99.90
2017-09-17T08:29:10.971Z,99.90
2017-09-17T08:31:38.521Z,99.90
2017-09-17T08:34:06.031Z,99.90
2017-09-17T08:36:33.559Z,99.90
2017-09-17T08:39:01.084Z,99.90
2017-09-17T08:41:28.643Z,99.90
2017-09-17T08:43:56.156Z,99.90
2017-09-17T08:46:23.758Z,99.90
2017-09-17T08:48:51.279Z,99.90
2017-09-17T08:51:18.894Z,99.40
2017-09-17T08:53:47.715Z,99.90
2017-09-17T08:56:15.259Z,99.90
2017-09-17T08:58:42.773Z,99.90
2017-09-17T09:01:11.070Z,98.30
2017-09-17T09:03:38.571Z,98.30
2017-09-17T09:06:06.189Z,96.90
2017-09-17T09:08:33.702Z,98.00
2017-09-17T09:11:02.003Z,98.10
2017-09-17T09:13:29.503Z,99.20
2017-09-17T09:15:57.022Z,97.40
2017-09-17T09:18:24.544Z,98.40
2017-09-17T09:20:52.048Z,99.10
2017-09-17T09:23:19.602Z,97.30
2017-09-17T09:25:47.999Z,98.10
2017-09-17T09:28:15.520Z,98.70
2017-09-17T09:30:43.817Z,97.40
2017-09-17T09:33:11.349Z,97.40
2017-09-17T09:35:39.618Z,97.10
2017-09-17T09:38:07.906Z,96.60
2017-09-17T09:40:36.198Z,94.20
2017-09-17T09:43:03.714Z,94.10
2017-09-17T09:45:31.210Z,94.00
2017-09-17T09:47:58.735Z,93.60
2017-09-17T09:50:26.330Z,94.80
2017-09-17T09:52:53.868Z,92.30
2017-09-17T09:55:22.135Z,93.00
2017-09-17T09:57:49.726Z,93.00
2017-09-17T10:00:17.243Z,90.50
2017-09-17T10:02:44.748Z,90.90
2017-09-17T10:05:12.299Z,92.00
2017-09-17T10:07:40.051Z,92.90
2017-09-17T10:10:08.331Z,92.20
2017-09-17T10:12:36.614Z,93.80
2017-09-17T10:15:04.136Z,93.80
2017-09-17T10:17:31.640Z,93.20
2017-09-17T10:19:59.158Z,91.90
2017-09-17T10:22:28.139Z,91.00
2017-09-17T10:24:55.668Z,91.00
2017-09-17T10:27:23.199Z,91.20
2017-09-17T10:29:50.712Z,89.30
2017-09-17T10:32:18.331Z,91.00
2017-09-17T10:34:45.907Z,89.90
2017-09-17T10:37:14.124Z,90.80
2017-09-17T10:39:42.939Z,90.50
2017-09-17T10:42:10.456Z,90.40
2017-09-17T10:44:38.057Z,91.20
2017-09-17T10:47:05.619Z,91.60
2017-09-17T10:49:33.123Z,92.00
2017-09-17T10:52:00.726Z,92.60
2017-09-17T10:54:28.995Z,89.90
2017-09-17T10:56:57.389Z,88.70
2017-09-17T10:59:24.902Z,88.60
2017-09-17T11:01:52.509Z,87.20
2017-09-17T11:04:20.063Z,86.60
2017-09-17T11:06:47.596Z,87.90
2017-09-17T11:09:15.907Z,86.80
2017-09-17T11:11:43.410Z,86.80
2017-09-17T11:14:10.949Z,88.80
2017-09-17T11:16:38.472Z,86.90
2017-09-17T11:19:05.987Z,91.50
2017-09-17T11:21:34.263Z,87.50
2017-09-17T11:24:01.783Z,87.50
2017-09-17T11:26:29.331Z,84.60
2017-09-17T11:28:56.852Z,88.70
2017-09-17T11:31:24.443Z,85.40
2017-09-17T11:33:51.959Z,85.70
2017-09-17T11:36:19.458Z,85.10
2017-09-17T11:38:47.018Z,86.00
2017-09-17T11:41:14.519Z,85.20
2017-09-17T11:43:42.134Z,84.50
2017-09-17T11:46:09.704Z,86.70
2017-09-17T11:48:37.227Z,84.50
2017-09-17T11:51:05.491Z,84.60
2017-09-17T11:53:33.024Z,84.50
2017-09-17T11:56:00.548Z,77.40
2017-09-17T11:58:28.142Z,79.20
2017-09-17T12:00:55.643Z,82.40
2017-09-17T12:03:23.915Z,86.10
2017-09-17T12:05:52.219Z,86.50
2017-09-17T12:08:19.827Z,86.50
2017-09-17T12:10:47.435Z,87.00
2017-09-17T12:13:14.991Z,87.70
2017-09-17T12:15:42.551Z,89.90
2017-09-17T12:18:10.111Z,87.00
2017-09-17T12:20:38.087Z,87.70
2017-09-17T12:23:05.643Z,88.30
2017-09-17T12:25:33.205Z,86.20
2017-09-17T12:28:00.712Z,86.70
2017-09-17T12:30:28.319Z,85.70
2017-09-17T12:32:55.823Z,86.60
2017-09-17T12:35:23.432Z,84.90
2017-09-17T12:37:50.974Z,85.70
2017-09-17T12:40:19.262Z,82.80
2017-09-17T12:42:46.830Z,82.80
2017-09-17T12:45:14.351Z,83.60
2017-09-17T12:47:41.863Z,84.40
2017-09-17T12:50:09.403Z,84.10
2017-09-17T12:52:36.958Z,85.00
2017-09-17T12:55:04.526Z,86.40
2017-09-17T12:57:32.030Z,85.70
2017-09-17T12:59:59.635Z,85.70
2017-09-17T13:02:27.863Z,86.10
2017-09-17T13:04:55.372Z,86.70
2017-09-17T13:07:22.891Z,86.90
2017-09-17T13:09:50.491Z,87.10
2017-09-17T13:12:18.003Z,88.10
2017-09-17T13:14:46.335Z,85.40
2017-09-17T13:17:13.851Z,85.20
2017-09-17T13:19:41.443Z,85.60
2017-09-17T13:22:08.958Z,85.50
2017-09-17T13:24:36.463Z,83.50
2017-09-17T13:27:04.019Z,84.60
2017-09-17T13:29:31.518Z,82.40
2017-09-17T13:31:59.135Z,80.00
2017-09-17T13:34:26.639Z,76.60
2017-09-17T13:36:54.183Z,75.10
2017-09-17T13:39:21.692Z,75.70
2017-09-17T13:41:49.955Z,79.60
2017-09-17T13:44:17.524Z,79.60
2017-09-17T13:46:45.791Z,79.10
2017-09-17T13:49:14.095Z,79.60
2017-09-17T13:51:42.019Z,79.50
2017-09-17T13:54:09.535Z,77.50
2017-09-17T13:56:37.847Z,71.80
2017-09-17T13:59:06.915Z,70.50
2017-09-17T14:14:57.794Z,69.80
2017-09-17T14:17:25.295Z,69.80
2017-09-17T14:19:52.816Z,68.90
2017-09-17T14:22:20.314Z,68.20
2017-09-17T14:24:47.914Z,70.80
2017-09-17T14:27:15.415Z,67.30
2017-09-17T14:29:42.936Z,65.60
2017-09-17T14:32:10.495Z,68.40
2017-09-17T14:34:38.023Z,68.50
2017-09-17T14:37:06.480Z,71.80
2017-09-17T14:39:34.004Z,71.80
2017-09-17T14:42:01.503Z,71.00
2017-09-17T14:44:29.024Z,65.20
2017-09-17T14:46:56.527Z,60.50
2017-09-17T14:49:24.227Z,60.50
2017-09-17T14:51:51.752Z,56.90
2017-09-17T14:54:20.035Z,60.80
2017-09-17T14:56:48.324Z,61.70
2017-09-17T14:59:15.828Z,61.70
2017-09-17T15:01:43.451Z,61.30
2017-09-17T15:04:10.955Z,63.80
2017-09-17T15:06:38.562Z,68.30
2017-09-17T15:09:06.670Z,69.30
2017-09-17T15:11:34.200Z,69.00
2017-09-17T15:14:02.551Z,70.70
2017-09-17T15:16:30.837Z,72.10
2017-09-17T15:18:59.103Z,74.00
2017-09-17T15:21:27.388Z,72.40
2017-09-17T15:23:55.655Z,71.70
2017-09-17T15:26:23.952Z,74.60
2017-09-17T15:28:51.455Z,74.50
2017-09-17T15:31:18.959Z,75.80
2017-09-17T15:33:47.258Z,66.20
2017-09-17T15:36:14.798Z,66.10
2017-09-17T15:38:42.367Z,65.20
2017-09-17T15:41:09.923Z,62.40
2017-09-17T15:43:37.435Z,58.60
2017-09-17T15:46:04.939Z,59.90
2017-09-17T15:48:32.535Z,66.30
2017-09-17T15:51:00.023Z,69.90
2017-09-17T15:53:27.544Z,70.50
2017-09-17T15:55:55.043Z,71.10
2017-09-17T15:58:23.331Z,78.30
2017-09-17T16:00:51.595Z,83.30
2017-09-17T16:03:19.899Z,85.50
2017-09-17T16:05:47.403Z,85.50
2017-09-17T16:08:14.919Z,85.90
2017-09-17T16:10:42.483Z,87.50
2017-09-17T16:13:10.148Z,89.10
2017-09-17T16:15:37.652Z,90.00
2017-09-17T16:18:05.180Z,87.40
2017-09-17T16:20:32.708Z,88.50
2017-09-17T16:23:00.227Z,88.40
2017-09-17T16:25:27.737Z,89.10
2017-09-17T16:27:55.259Z,89.10
2017-09-17T16:30:23.528Z,90.70
2017-09-17T16:32:51.063Z,90.70
2017-09-17T16:35:18.658Z,91.60
2017-09-17T16:37:46.936Z,94.10
2017-09-17T16:40:15.227Z,95.30
2017-09-17T16:42:43.090Z,95.40
2017-09-17T16:45:10.616Z,95.90
2017-09-17T16:47:38.124Z,96.90
2017-09-17T16:50:05.643Z,97.70
2017-09-17T16:52:33.909Z,98.00
2017-09-17T16:55:01.439Z,98.00
2017-09-17T16:57:28.954Z,97.80
2017-09-17T16:59:56.476Z,98.20
2017-09-17T17:02:24.080Z,98.30
2017-09-17T17:04:51.598Z,98.10
2017-09-17T17:07:19.104Z,98.50
2017-09-17T17:09:46.627Z,98.30
2017-09-17T17:12:14.900Z,98.60
2017-09-17T17:14:43.182Z,98.40
2017-09-17T17:17:11.484Z,97.90
2017-09-17T17:19:39.045Z,97.90
2017-09-17T17:22:06.540Z,98.40
2017-09-17T17:24:34.652Z,97.50
2017-09-17T17:27:02.944Z,98.70
2017-09-17T17:29:30.499Z,98.70
2017-09-17T17:31:58.366Z,99.00
2017-09-17T17:34:25.890Z,99.90
2017-09-17T17:36:53.471Z,99.90
2017-09-17T17:39:21.751Z,99.90
2017-09-17T17:41:50.019Z,99.90
2017-09-17T17:44:18.311Z,99.90
2017-09-17T17:46:45.815Z,99.90
2017-09-17T17:49:13.351Z,99.90
2017-09-17T17:51:40.846Z,99.90
2017-09-17T17:54:08.348Z,99.90
2017-09-17T17:56:35.872Z,99.90
2017-09-17T17:59:03.375Z,99.90
2017-09-17T18:01:30.896Z,99.90
2017-09-17T18:03:59.173Z,99.90
2017-09-17T18:06:27.462Z,99.90
2017-09-17T18:08:55.756Z,99.90
2017-09-17T18:11:23.275Z,99.90
2017-09-17T18:13:51.299Z,99.90
2017-09-17T18:16:18.836Z,99.90
2017-09-17T18:18:46.395Z,99.90
2017-09-17T18:21:13.916Z,99.90
2017-09-17T18:23:41.423Z,99.90
2017-09-17T18:26:08.947Z,99.90
2017-09-17T18:28:37.227Z,99.90
2017-09-17T18:31:05.515Z,99.90
2017-09-17T18:33:33.015Z,99.90
2017-09-17T18:36:00.530Z,99.90
2017-09-17T18:38:28.039Z,99.90
2017-09-17T18:40:55.563Z,99.90
2017-09-17T18:43:23.066Z,99.90
2017-09-17T18:45:50.588Z,99.90
2017-09-17T18:48:18.311Z,99.90
2017-09-17T18:50:52.374Z,99.90
2017-09-17T18:53:19.875Z,99.90
2017-09-17T18:55:48.158Z,99.90
2017-09-17T18:58:16.447Z,99.90
2017-09-17T19:00:43.979Z,99.90
2017-09-17T19:03:12.267Z,99.90
2017-09-17T19:05:40.548Z,99.90
2017-09-17T19:08:08.835Z,99.90
2017-09-17T19:10:36.391Z,99.90
2017-09-17T19:13:04.643Z,99.90
2017-09-17T19:15:32.147Z,99.90
2017-09-17T19:17:59.667Z,99.90
2017-09-17T19:20:27.931Z,99.90
2017-09-17T19:22:55.456Z,99.90
2017-09-17T19:25:22.963Z,99.90
2017-09-17T19:27:51.250Z,99.90
2017-09-17T19:30:18.757Z,99.90
2017-09-17T19:32:46.270Z,99.90
2017-09-17T19:35:13.775Z,99.90
2017-09-17T19:37:41.301Z,99.90
2017-09-17T19:40:08.823Z,99.90
2017-09-17T19:42:37.113Z,99.90
2017-09-17T19:45:05.580Z,99.90
2017-09-17T19:47:33.863Z,99.90
2017-09-17T19:50:02.135Z,99.90
2017-09-17T19:52:30.443Z,99.90
2017-09-17T19:54:57.947Z,99.90
2017-09-17T19:57:25.484Z,99.90
2017-09-17T19:59:52.994Z,99.90
2017-09-17T20:02:20.508Z,99.90
2017-09-17T20:04:48.035Z,99.90
2017-09-17T20:07:16.086Z,99.90
2017-09-17T20:09:43.663Z,99.90
2017-09-17T20:12:11.164Z,99.90
2017-09-17T20:14:40.203Z,99.90
2017-09-17T20:17:07.707Z,99.90
2017-09-17T20:19:35.228Z,99.90
2017-09-17T20:22:02.732Z,99.90
2017-09-17T20:24:30.247Z,99.90
2017-09-17T20:26:57.754Z,99.90
2017-09-17T20:29:25.276Z,99.90
2017-09-17T20:31:52.804Z,99.90
2017-09-17T20:34:20.366Z,99.90
2017-09-17T20:36:47.870Z,99.90
2017-09-17T20:39:15.751Z,99.90
2017-09-17T20:41:43.256Z,99.90
2017-09-17T20:44:10.779Z,99.90
2017-09-17T20:46:39.051Z,99.90
2017-09-17T20:49:07.342Z,99.90
2017-09-17T20:51:35.611Z,99.90
2017-09-17T20:54:03.895Z,99.90
2017-09-17T20:56:32.163Z,99.90
2017-09-17T20:59:00.442Z,99.90
2017-09-17T21:01:28.712Z,99.90
2017-09-17T21:03:56.999Z,99.90
2017-09-17T21:06:25.267Z,99.90
2017-09-17T21:08:53.555Z,99.90
2017-09-17T21:11:21.838Z,99.90
2017-09-17T21:13:49.364Z,99.90
2017-09-17T21:16:17.675Z,99.90
2017-09-17T21:18:45.235Z,99.90
2017-09-17T21:21:12.743Z,99.90
2017-09-17T21:23:42.475Z,99.90
2017-09-17T21:26:10.843Z,99.90
2017-09-17T21:28:38.348Z,99.90
2017-09-17T21:31:05.868Z,99.90
2017-09-17T21:33:34.130Z,99.90
2017-09-17T21:36:01.732Z,99.90
2017-09-17T21:38:29.246Z,99.90
2017-09-17T21:40:57.669Z,99.90
2017-09-17T21:43:25.175Z,99.90
2017-09-17T21:45:52.782Z,99.90
2017-09-17T21:48:20.283Z,99.90
2017-09-17T21:50:48.534Z,99.90
2017-09-17T21:53:16.039Z,99.90
2017-09-17T21:55:43.570Z,99.90
2017-09-17T21:58:11.076Z,99.90
2017-09-17T22:00:39.363Z,99.90
2017-09-17T22:03:06.931Z,99.90
2017-09-17T22:05:34.452Z,99.90
2017-09-17T22:08:01.951Z,99.90
2017-09-17T22:10:29.467Z,99.90
2017-09-17T22:12:57.738Z,99.90
2017-09-17T22:15:25.256Z,99.90
2017-09-17T22:17:52.757Z,99.90
2017-09-17T22:20:20.277Z,99.90
2017-09-17T22:22:47.815Z,99.90
2017-09-17T22:25:15.325Z,99.90
2017-09-17T22:27:42.870Z,99.90
2017-09-17T22:30:11.255Z,99.90
2017-09-17T22:32:38.768Z,99.90
2017-09-17T22:35:07.031Z,99.90
2017-09-17T22:37:35.357Z,99.90
2017-09-17T22:40:02.860Z,99.90
2017-09-17T22:42:31.147Z,99.90
2017-09-17T22:44:58.656Z,99.90
2017-09-17T22:47:26.895Z,99.90
2017-09-17T22:49:54.400Z,99.90
2017-09-17T22:52:21.932Z,99.90
2017-09-17T22:54:50.332Z,99.90
2017-09-17T22:57:17.959Z,99.90
2017-09-17T22:59:45.471Z,99.90
2017-09-17T23:02:13.754Z,99.90
2017-09-17T23:04:42.019Z,99.90
2017-09-17T23:07:10.303Z,99.90
2017-09-17T23:09:38.599Z,99.90
2017-09-17T23:12:06.115Z,99.90
2017-09-17T23:14:33.727Z,99.90
2017-09-17T23:17:01.275Z,99.90
2017-09-17T23:19:28.840Z,99.90
2017-09-17T23:21:56.360Z,99.90
2017-09-17T23:24:23.859Z,99.90
2017-09-17T23:26:51.406Z,99.90
2017-09-17T23:29:18.906Z,99.90
2017-09-17T23:31:46.426Z,99.90
2017-09-17T23:34:13.951Z,99.90
2017-09-17T23:36:41.534Z,99.90
2017-09-17T23:39:09.031Z,99.90
2017-09-17T23:41:36.547Z,99.90
2017-09-17T23:44:04.051Z,99.90
2017-09-17T23:46:31.572Z,99.90
2017-09-17T23:48:59.079Z,99.90
2017-09-17T23:51:26.687Z,99.90
2017-09-17T23:53:54.191Z,99.90
2017-09-17T23:56:21.695Z,99.90
2017-09-17T23:58:50.879Z,99.90
